createdAt,value
2023-03-02T00:02:32.516Z,827.17
2023-03-02T00:05:41.990Z,834.96
2023-03-02T00:08:48.880Z,870.71
2023-03-02T00:11:55.789Z,869.28
2023-03-02T00:15:01.716Z,844.99
2023-03-02T00:18:11.203Z,820.36
2023-03-02T00:21:17.545Z,844.56
2023-03-02T00:24:24.259Z,868.08
2023-03-02T00:27:30.363Z,876.86
2023-03-02T00:30:37.140Z,945.44
2023-03-02T00:33:46.406Z,991.28
2023-03-02T00:36:53.258Z,983.02
2023-03-02T00:39:59.266Z,982.67
2023-03-02T00:43:06.144Z,978.32
2023-03-02T00:46:14.569Z,966.55
2023-03-02T00:49:23.924Z,983.40
2023-03-02T00:52:29.905Z,971.68
2023-03-02T00:55:36.478Z,977.95
2023-03-02T00:58:42.617Z,991.96
2023-03-02T01:01:58.414Z,999.41
2023-03-02T01:05:09.966Z,979.88
2023-03-02T01:08:16.904Z,945.82
2023-03-02T01:11:25.984Z,951.37
2023-03-02T01:14:34.727Z,928.31
2023-03-02T01:17:41.476Z,929.96
2023-03-02T01:20:50.601Z,952.18
2023-03-02T01:23:56.443Z,987.50
2023-03-02T01:27:06.150Z,973.40
2023-03-02T01:30:14.339Z,959.90
2023-03-02T01:33:21.460Z,971.71
2023-03-02T01:36:30.981Z,970.43
2023-03-02T01:39:37.919Z,967.20
2023-03-02T01:43:02.497Z,962.67
2023-03-02T01:46:17.363Z,969.76
2023-03-02T01:49:31.647Z,991.18
2023-03-02T01:52:43.364Z,985.09
2023-03-02T01:55:50.638Z,993.98
2023-03-02T01:59:04.330Z,977.13
2023-03-02T02:02:14.834Z,966.21
2023-03-02T02:05:28.313Z,983.00
2023-03-02T02:08:38.102Z,988.52
2023-03-02T02:11:46.095Z,1002.06
2023-03-02T02:14:54.287Z,1022.69
2023-03-02T02:18:01.010Z,1027.33
2023-03-02T02:21:08.551Z,993.58
2023-03-02T02:24:28.081Z,985.15
2023-03-02T02:27:36.780Z,969.56
2023-03-02T02:30:46.575Z,952.37
2023-03-02T02:34:00.577Z,945.57
2023-03-02T02:37:16.531Z,936.13
2023-03-02T02:40:44.727Z,934.48
2023-03-02T02:43:58.475Z,924.63
2023-03-02T02:47:05.861Z,916.72
2023-03-02T02:50:23.744Z,920.22
2023-03-02T02:53:38.085Z,920.31
2023-03-02T02:56:47.439Z,922.21
2023-03-02T03:00:04.060Z,913.53
2023-03-02T03:03:31.986Z,905.97
2023-03-02T03:06:42.418Z,919.16
2023-03-02T03:10:03.490Z,920.26
2023-03-02T03:13:11.416Z,916.79
2023-03-02T03:16:24.057Z,895.03
2023-03-02T03:19:33.336Z,871.96
2023-03-02T03:22:42.219Z,846.51
2023-03-02T03:25:50.048Z,828.56
2023-03-02T03:28:57.428Z,836.11
2023-03-02T03:32:08.438Z,827.53
2023-03-02T03:35:15.762Z,812.09
2023-03-02T03:38:22.112Z,790.76
2023-03-02T03:41:30.429Z,780.99
2023-03-02T03:44:36.564Z,761.06
2023-03-02T03:47:45.798Z,778.51
2023-03-02T03:50:52.245Z,815.72
2023-03-02T03:54:08.542Z,902.30
2023-03-02T03:57:17.615Z,940.48
2023-03-02T04:00:26.260Z,1034.42
2023-03-02T04:03:40.029Z,1002.54
2023-03-02T04:06:47.775Z,1048.23
2023-03-02T04:10:03.615Z,1013.01
2023-03-02T04:13:14.141Z,989.36
2023-03-02T04:16:20.244Z,988.67
2023-03-02T04:19:29.638Z,1021.78
2023-03-02T04:22:37.308Z,1025.83
2023-03-02T04:25:44.191Z,973.65
2023-03-02T04:28:54.150Z,923.23
2023-03-02T04:32:01.705Z,888.51
2023-03-02T04:35:12.789Z,870.51
2023-03-02T04:38:19.781Z,889.14
2023-03-02T04:41:26.667Z,886.82
2023-03-02T04:44:33.245Z,869.15
2023-03-02T04:47:39.294Z,850.30
2023-03-02T04:50:49.019Z,836.55
2023-03-02T04:53:57.509Z,808.05
2023-03-02T04:57:04.227Z,790.62
2023-03-02T05:00:13.147Z,792.67
2023-03-02T05:03:22.242Z,817.03
2023-03-02T05:06:31.155Z,848.31
2023-03-02T05:09:39.500Z,843.13
2023-03-02T05:12:58.359Z,864.90
2023-03-02T05:16:05.175Z,899.94
2023-03-02T05:19:18.055Z,919.17
2023-03-02T05:22:27.280Z,950.60
2023-03-02T05:25:37.144Z,1043.36
2023-03-02T05:28:47.077Z,1096.04
2023-03-02T05:31:53.574Z,1280.75
2023-03-02T05:35:00.661Z,1537.00
2023-03-02T05:38:09.454Z,1510.84
2023-03-02T05:41:16.062Z,1384.41
2023-03-02T05:44:22.109Z,1266.60
2023-03-02T05:47:28.764Z,1239.37
2023-03-02T05:50:34.999Z,1234.91
2023-03-02T05:53:44.180Z,1364.54
2023-03-02T05:56:50.444Z,1420.65
2023-03-02T05:59:57.048Z,1343.41
2023-03-02T06:03:06.358Z,1250.41
2023-03-02T06:06:14.453Z,1140.38
2023-03-02T06:09:22.997Z,1134.91
2023-03-02T06:12:29.834Z,1127.66
2023-03-02T06:15:35.744Z,1035.20
2023-03-02T06:18:46.149Z,1019.07
2023-03-02T06:21:51.929Z,974.48
2023-03-02T06:25:01.077Z,904.99
2023-03-02T06:28:09.852Z,901.37
2023-03-02T06:31:16.451Z,911.51
2023-03-02T06:34:22.274Z,912.00
2023-03-02T06:37:28.991Z,868.94
2023-03-02T06:40:40.015Z,792.67
2023-03-02T06:43:46.840Z,772.05
2023-03-02T06:46:52.661Z,768.48
2023-03-02T06:49:59.495Z,763.48
2023-03-02T06:53:05.758Z,765.50
2023-03-02T06:56:14.979Z,755.08
2023-03-02T06:59:20.731Z,752.21
2023-03-02T07:02:27.332Z,735.96
2023-03-02T07:05:34.051Z,719.86
2023-03-02T07:08:40.635Z,667.32
2023-03-02T07:11:49.069Z,695.54
2023-03-02T07:14:55.608Z,748.80
2023-03-02T07:18:01.604Z,748.04
2023-03-02T07:21:09.334Z,721.77
2023-03-02T07:24:15.118Z,660.46
2023-03-02T07:27:24.535Z,636.77
2023-03-02T07:30:32.743Z,608.80
2023-03-02T07:33:40.257Z,596.28
2023-03-02T07:36:45.965Z,579.08
2023-03-02T07:39:54.224Z,548.63
2023-03-02T07:43:02.778Z,546.00
2023-03-02T07:46:09.706Z,528.75
2023-03-02T07:49:15.601Z,518.06
2023-03-02T07:52:22.169Z,524.73
2023-03-02T07:55:28.051Z,516.60
2023-03-02T07:58:38.902Z,509.76
2023-03-02T08:01:44.822Z,526.98
2023-03-02T08:04:52.458Z,533.87
2023-03-02T08:07:58.275Z,529.20
2023-03-02T08:11:08.943Z,543.04
2023-03-02T08:14:17.579Z,539.94
2023-03-02T08:17:24.282Z,512.26
2023-03-02T08:20:30.378Z,500.44
2023-03-02T08:23:37.327Z,486.70
2023-03-02T08:26:44.853Z,442.80
2023-03-02T08:29:54.690Z,435.95
2023-03-02T08:33:04.425Z,463.40
2023-03-02T08:36:17.837Z,447.73
2023-03-02T08:39:23.965Z,434.10
2023-03-02T08:42:30.657Z,329.78
2023-03-02T08:45:40.805Z,264.39
2023-03-02T08:48:48.305Z,245.30
2023-03-02T08:51:56.462Z,239.04
2023-03-02T08:55:04.131Z,244.75
2023-03-02T08:58:10.078Z,242.84
2023-03-02T09:01:22.184Z,238.56
2023-03-02T09:04:28.024Z,227.66
2023-03-02T09:07:35.814Z,203.54
2023-03-02T09:10:42.180Z,213.89
2023-03-02T09:13:49.162Z,212.44
2023-03-02T09:16:57.555Z,207.91
2023-03-02T09:20:04.276Z,207.30
2023-03-02T09:23:11.202Z,200.52
2023-03-02T09:26:17.968Z,197.46
2023-03-02T09:29:23.824Z,196.72
2023-03-02T09:32:33.351Z,220.69
2023-03-02T09:35:42.131Z,203.71
2023-03-02T09:38:48.803Z,193.92
2023-03-02T09:42:44.397Z,191.87
2023-03-02T09:46:11.740Z,169.75
2023-03-02T09:49:35.816Z,177.84
2023-03-02T09:52:53.668Z,177.36
2023-03-02T09:56:02.649Z,168.56
2023-03-02T09:59:24.078Z,174.84
2023-03-02T10:02:38.367Z,171.18
2023-03-02T10:05:51.163Z,171.00
2023-03-02T10:08:58.119Z,165.95
2023-03-02T10:12:45.107Z,163.21
2023-03-02T10:16:11.643Z,166.70
2023-03-02T10:19:28.699Z,162.12
2023-03-02T10:22:49.486Z,163.84
2023-03-02T10:26:05.421Z,153.25
2023-03-02T10:29:42.751Z,144.82
2023-03-02T10:32:55.084Z,160.04
2023-03-02T10:36:01.330Z,160.87
2023-03-02T10:39:19.346Z,156.42
2023-03-02T10:42:33.889Z,151.28
2023-03-02T10:45:40.567Z,158.58
2023-03-02T10:48:56.367Z,157.12
2023-03-02T10:52:08.570Z,158.30
2023-03-02T10:55:20.193Z,155.82
2023-03-02T10:58:33.624Z,144.87
2023-03-02T11:01:39.473Z,136.49
2023-03-02T11:04:46.489Z,144.06
2023-03-02T11:07:57.703Z,152.27
2023-03-02T11:11:08.310Z,152.16
2023-03-02T11:14:20.388Z,156.76
2023-03-02T11:17:37.455Z,156.46
2023-03-02T11:20:50.217Z,157.69
2023-03-02T11:24:12.407Z,164.95
2023-03-02T11:27:30.657Z,154.32
2023-03-02T11:30:49.969Z,163.79
2023-03-02T11:34:18.034Z,159.38
2023-03-02T11:37:32.994Z,157.18
2023-03-02T11:40:49.842Z,150.10
2023-03-02T11:44:04.971Z,163.99
2023-03-02T11:47:16.295Z,164.00
2023-03-02T11:50:24.341Z,477.76
2023-03-02T11:53:44.452Z,454.46
2023-03-02T11:56:51.291Z,161.47
2023-03-02T12:00:02.496Z,163.80
2023-03-02T12:03:41.553Z,241.21
2023-03-02T12:06:47.347Z,177.21
2023-03-02T12:10:07.809Z,162.05
2023-03-02T12:13:26.234Z,165.80
2023-03-02T12:16:43.254Z,157.44
2023-03-02T12:19:51.761Z,167.32
2023-03-02T12:23:11.648Z,161.00
2023-03-02T12:26:34.054Z,158.76
2023-03-02T12:29:44.325Z,156.83
2023-03-02T12:33:07.035Z,157.17
2023-03-02T12:36:28.087Z,160.08
2023-03-02T12:40:11.686Z,144.98
2023-03-02T12:43:32.718Z,144.02
2023-03-02T12:46:41.121Z,138.20
2023-03-02T12:50:00.758Z,131.38
2023-03-02T12:53:10.075Z,144.36
2023-03-02T12:56:26.995Z,145.20
2023-03-02T12:59:32.992Z,139.29
2023-03-02T13:02:40.313Z,142.72
2023-03-02T13:05:50.169Z,142.67
2023-03-02T13:09:01.608Z,146.41
2023-03-02T13:12:08.194Z,149.37
2023-03-02T13:15:20.501Z,152.73
2023-03-02T13:18:32.167Z,145.78
2023-03-02T13:21:42.933Z,147.45
2023-03-02T13:24:54.810Z,139.96
2023-03-02T13:28:07.652Z,142.24
2023-03-02T13:31:28.081Z,171.46
2023-03-02T13:34:52.717Z,143.55
2023-03-02T13:38:07.721Z,135.89
2023-03-02T13:41:25.924Z,137.25
2023-03-02T13:44:37.632Z,181.46
2023-03-02T13:47:44.779Z,604.71
2023-03-02T13:51:03.037Z,353.65
2023-03-02T13:54:25.073Z,157.79
2023-03-02T13:57:35.743Z,178.52
2023-03-02T14:00:43.267Z,151.76
2023-03-02T14:03:49.226Z,202.95
2023-03-02T14:06:58.138Z,297.01
2023-03-02T14:10:07.344Z,247.58
2023-03-02T14:13:22.806Z,251.10
2023-03-02T14:16:28.597Z,248.96
2023-03-02T14:19:35.252Z,226.35
2023-03-02T14:22:41.063Z,212.96
2023-03-02T14:25:51.113Z,213.29
2023-03-02T14:29:05.585Z,206.23
2023-03-02T14:32:16.024Z,218.19
2023-03-02T14:35:21.963Z,199.30
2023-03-02T14:38:30.725Z,193.06
2023-03-02T14:41:52.865Z,202.22
2023-03-02T14:45:00.545Z,187.55
2023-03-02T14:48:06.859Z,175.99
2023-03-02T14:51:28.400Z,171.26
2023-03-02T14:54:43.846Z,274.22
2023-03-02T14:58:01.177Z,181.62
2023-03-02T15:01:08.624Z,170.62
2023-03-02T15:04:15.124Z,188.31
2023-03-02T15:07:27.714Z,168.81
2023-03-02T15:10:34.841Z,150.75
2023-03-02T15:13:45.724Z,155.39
2023-03-02T15:16:52.600Z,188.14
2023-03-02T15:19:58.822Z,166.90
2023-03-02T15:23:05.853Z,158.23
2023-03-02T15:26:14.920Z,154.78
2023-03-02T15:29:24.907Z,155.34
2023-03-02T15:32:30.798Z,158.37
2023-03-02T15:35:37.431Z,149.84
2023-03-02T15:38:43.449Z,158.77
2023-03-02T15:41:50.137Z,156.24
2023-03-02T15:44:58.636Z,177.85
2023-03-02T15:48:05.280Z,188.23
2023-03-02T15:51:12.940Z,271.14
2023-03-02T15:54:20.997Z,211.68
2023-03-02T15:57:26.823Z,193.86
2023-03-02T16:00:37.968Z,172.44
2023-03-02T16:03:43.842Z,165.64
2023-03-02T16:06:50.688Z,168.67
2023-03-02T16:09:56.796Z,210.48
2023-03-02T16:13:04.737Z,260.48
2023-03-02T16:16:13.553Z,287.19
2023-03-02T16:19:22.011Z,317.69
2023-03-02T16:22:28.013Z,313.38
2023-03-02T16:25:34.808Z,288.69
2023-03-02T16:28:40.700Z,286.57
2023-03-02T16:31:51.636Z,289.13
2023-03-02T16:34:58.049Z,285.01
2023-03-02T16:38:05.015Z,291.05
2023-03-02T16:41:19.219Z,287.46
2023-03-02T16:44:25.896Z,288.56
2023-03-02T16:47:34.515Z,266.83
2023-03-02T16:50:41.614Z,279.87
2023-03-02T16:53:48.229Z,258.30
2023-03-02T16:56:54.897Z,271.77
2023-03-02T17:00:05.772Z,259.97
2023-03-02T17:03:15.151Z,283.02
2023-03-02T17:06:30.296Z,370.08
2023-03-02T17:09:41.442Z,1282.75
2023-03-02T17:12:50.266Z,1980.51
2023-03-02T17:15:57.751Z,2178.67
2023-03-02T17:19:06.208Z,1745.77
2023-03-02T17:22:12.990Z,1217.76
2023-03-02T17:25:19.229Z,982.14
2023-03-02T17:28:26.666Z,2050.87
2023-03-02T17:31:32.584Z,1365.09
2023-03-02T17:34:43.516Z,1054.86
2023-03-02T17:37:49.609Z,770.32
2023-03-02T17:40:56.188Z,696.58
2023-03-02T17:44:02.610Z,679.36
2023-03-02T17:47:13.236Z,759.88
2023-03-02T17:50:22.390Z,771.71
2023-03-02T17:53:28.900Z,778.90
2023-03-02T17:56:34.824Z,801.83
2023-03-02T17:59:43.106Z,833.21
2023-03-02T18:02:49.367Z,823.80
2023-03-02T18:05:58.763Z,898.20
2023-03-02T18:09:08.204Z,788.45
2023-03-02T18:12:14.793Z,672.62
2023-03-02T18:15:20.792Z,564.26
2023-03-02T18:18:27.857Z,496.04
2023-03-02T18:21:36.889Z,591.49
2023-03-02T18:24:43.447Z,670.34
2023-03-02T18:27:49.620Z,781.98
2023-03-02T18:30:56.228Z,759.07
2023-03-02T18:34:02.177Z,761.26
2023-03-02T18:37:11.793Z,838.40
2023-03-02T18:40:18.510Z,928.51
2023-03-02T18:43:25.137Z,834.95
2023-03-02T18:46:35.058Z,972.74
2023-03-02T18:49:42.774Z,2563.23
2023-03-02T18:52:53.073Z,1034.74
2023-03-02T18:55:59.927Z,687.35
2023-03-02T18:59:07.391Z,646.62
2023-03-02T19:02:17.242Z,666.70
2023-03-02T19:05:27.092Z,750.84
2023-03-02T19:08:37.229Z,719.64
2023-03-02T19:11:43.154Z,741.68
2023-03-02T19:14:50.074Z,731.04
2023-03-02T19:17:57.369Z,759.84
2023-03-02T19:21:05.041Z,769.82
2023-03-02T19:24:13.773Z,716.82
2023-03-02T19:27:20.494Z,696.17
2023-03-02T19:30:30.069Z,682.55
2023-03-02T19:33:36.955Z,720.91
2023-03-02T19:36:42.900Z,622.85
2023-03-02T19:39:52.596Z,619.52
2023-03-02T19:42:58.820Z,704.10
2023-03-02T19:46:05.616Z,840.82
2023-03-02T19:49:11.599Z,742.36
2023-03-02T19:52:18.594Z,699.71
2023-03-02T19:55:28.952Z,687.12
2023-03-02T19:58:35.945Z,749.19
2023-03-02T20:01:42.245Z,737.94
2023-03-02T20:04:51.078Z,772.45
2023-03-02T20:07:58.027Z,773.85
2023-03-02T20:11:07.957Z,742.47
2023-03-02T20:14:27.625Z,768.91
2023-03-02T20:17:39.750Z,770.92
2023-03-02T20:20:47.403Z,781.31
2023-03-02T20:23:54.752Z,768.07
2023-03-02T20:27:03.727Z,746.35
2023-03-02T20:30:21.631Z,742.91
2023-03-02T20:33:32.456Z,732.03
2023-03-02T20:36:40.988Z,767.56
2023-03-02T20:39:49.869Z,750.25
2023-03-02T20:42:59.254Z,810.53
2023-03-02T20:46:05.969Z,752.71
2023-03-02T20:49:15.992Z,844.13
2023-03-02T20:52:21.830Z,879.65
2023-03-02T20:55:29.822Z,935.91
2023-03-02T20:58:41.315Z,873.42
2023-03-02T21:01:48.185Z,799.04
2023-03-02T21:04:54.429Z,816.22
2023-03-02T21:08:01.608Z,801.48
2023-03-02T21:11:08.098Z,791.13
2023-03-02T21:14:17.565Z,854.61
2023-03-02T21:17:24.471Z,821.26
2023-03-02T21:20:36.040Z,858.09
2023-03-02T21:23:42.747Z,1176.76
2023-03-02T21:26:52.279Z,1095.58
2023-03-02T21:30:03.456Z,1034.45
2023-03-02T21:33:10.572Z,1163.20
2023-03-02T21:36:22.360Z,1079.54
2023-03-02T21:39:29.444Z,1043.27
2023-03-02T21:42:35.317Z,1106.70
2023-03-02T21:45:45.300Z,1038.72
2023-03-02T21:48:53.625Z,979.23
2023-03-02T21:52:00.756Z,991.90
2023-03-02T21:55:06.976Z,999.29
2023-03-02T21:58:13.637Z,978.57
2023-03-02T22:01:22.251Z,1011.21
2023-03-02T22:04:28.939Z,965.62
2023-03-02T22:07:35.075Z,910.24
2023-03-02T22:10:45.631Z,903.25
2023-03-02T22:13:54.077Z,928.40
2023-03-02T22:17:03.695Z,945.74
2023-03-02T22:20:20.596Z,982.36
2023-03-02T22:23:29.431Z,932.28
2023-03-02T22:26:35.851Z,1039.34
2023-03-02T22:29:46.859Z,927.69
2023-03-02T22:32:58.385Z,884.37
2023-03-02T22:36:19.118Z,870.33
2023-03-02T22:39:36.355Z,872.35
2023-03-02T22:42:44.036Z,915.01
2023-03-02T22:45:51.195Z,912.46
2023-03-02T22:49:02.606Z,960.43
2023-03-02T22:52:21.170Z,957.72
2023-03-02T22:55:45.137Z,967.66
2023-03-02T22:58:53.739Z,966.52
2023-03-02T23:02:05.435Z,944.89
2023-03-02T23:05:29.846Z,945.08
2023-03-02T23:08:36.598Z,927.53
2023-03-02T23:11:45.118Z,969.04
2023-03-02T23:14:54.546Z,976.83
2023-03-02T23:18:01.608Z,1018.90
2023-03-02T23:21:24.174Z,934.94
2023-03-02T23:24:30.125Z,931.69
2023-03-02T23:27:36.790Z,951.29
2023-03-02T23:30:42.763Z,926.28
2023-03-02T23:33:55.808Z,902.30
2023-03-02T23:37:10.240Z,831.93
2023-03-02T23:40:23.101Z,783.71
2023-03-02T23:43:29.266Z,785.55
2023-03-02T23:46:36.714Z,790.72
2023-03-02T23:49:42.617Z,761.79
2023-03-02T23:52:51.858Z,757.30
2023-03-02T23:55:58.815Z,835.05
2023-03-02T23:59:05.545Z,824.81
